Time;durP1;ratioP1;P1;durP2;ratioP2;P2;SDS_P1;SDS_P2;PMS_P1;PMS_P2;Temp;Humidity;BMP_temperature;BMP_pressure;BME280_temperature;BME280_humidity;BME280_pressure;Samples;Min_cycle;Max_cycle;Signal;HPM_P1;HPM_P2
2022/08/09 00:00:34;;;;;;;5.10;3.73;;;;;;;19.98;64.44;98674.09;4191457;28;20638;-85
2022/08/09 00:02:47;;;;;;;4.27;3.63;;;;;;;19.94;64.97;98676.22;4173275;28;20621;-85
2022/08/09 00:04:53;;;;;;;5.20;4.13;;;;;;;19.90;64.81;98676.66;4171527;28;20991;-85
2022/08/09 00:07:16;;;;;;;4.50;3.40;;;;;;;19.85;64.11;98678.91;4173456;28;20661;-85
2022/08/09 00:09:20;;;;;;;4.20;3.70;;;;;;;19.80;64.43;98678.53;4173528;28;21099;-85
2022/08/09 00:11:23;;;;;;;4.00;3.57;;;;;;;19.78;64.38;98679.63;4175053;28;20720;-85
2022/08/09 00:13:46;;;;;;;3.70;3.40;;;;;;;19.72;64.26;98674.94;4191493;28;20632;-85
2022/08/09 00:15:49;;;;;;;5.03;3.63;;;;;;;19.69;65.02;98673.41;4173667;28;21067;-85
2022/08/09 00:18:05;;;;;;;4.17;3.77;;;;;;;19.64;65.18;98673.00;4174627;28;20640;-85
2022/08/09 00:20:14;;;;;;;4.53;3.63;;;;;;;19.63;65.62;98671.34;4174555;28;21049;-84
2022/08/09 00:22:17;;;;;;;4.33;3.93;;;;;;;19.61;65.16;98673.31;4167778;28;20652;-85
2022/08/09 00:24:20;;;;;;;4.33;3.93;;;;;;;19.58;66.19;98678.88;4154191;28;21032;-85
2022/08/09 00:26:26;;;;;;;4.20;3.80;;;;;;;19.54;65.36;98681.97;4174255;28;20757;-84
2022/08/09 00:28:35;;;;;;;4.20;3.80;;;;;;;19.50;66.04;98686.72;4184413;28;21030;-85
2022/08/09 00:30:38;;;;;;;3.70;3.40;;;;;;;19.49;65.65;98682.41;4172892;28;20671;-84
2022/08/09 00:32:42;;;;;;;6.03;3.53;;;;;;;19.45;65.49;98677.53;4168869;28;20651;-85
2022/08/09 00:34:49;;;;;;;3.90;3.50;;;;;;;19.43;66.13;98684.81;4184481;28;20674;-85
2022/08/09 00:36:54;;;;;;;5.50;3.70;;;;;;;19.40;65.84;98682.44;4173738;28;20642;-85
2022/08/09 00:38:59;;;;;;;4.40;3.40;;;;;;;19.37;66.18;98680.09;4171293;28;20621;-85
2022/08/09 00:41:02;;;;;;;5.63;3.67;;;;;;;19.35;66.22;98682.06;4172605;28;21123;-84
2022/08/09 00:43:10;;;;;;;3.90;3.60;;;;;;;19.34;65.99;98680.38;4174474;28;20624;-85
2022/08/09 00:45:33;;;;;;;4.40;3.47;;;;;;;19.31;66.14;98680.66;4172722;28;20644;-84
2022/08/09 00:47:37;;;;;;;4.20;3.30;;;;;;;19.26;65.97;98674.97;4186543;28;21304;-85
2022/08/09 00:49:41;;;;;;;4.47;3.80;;;;;;;19.26;65.86;98682.06;4169179;28;20634;-85
2022/08/09 00:51:58;;;;;;;4.73;3.40;;;;;;;19.26;66.04;98682.06;4174341;28;20732;-85
2022/08/09 00:54:07;;;;;;;4.20;3.10;;;;;;;19.25;66.29;98680.41;4170554;28;20629;-84
2022/08/09 00:56:12;;;;;;;3.87;3.30;;;;;;;19.25;66.00;98683.88;4173255;28;20703;-84
2022/08/09 00:58:15;;;;;;;3.90;3.50;;;;;;;19.24;66.12;98682.19;4171425;28;21078;-85
2022/08/09 01:00:29;;;;;;;3.80;3.50;;;;;;;19.24;65.38;98686.66;4172785;28;20692;-85
2022/08/09 01:02:40;;;;;;;4.00;3.67;;;;;;;19.25;65.65;98683.88;4171810;28;20658;-85
2022/08/09 01:04:48;;;;;;;4.27;3.40;;;;;;;19.27;65.33;98683.75;4170206;28;20637;-85
2022/08/09 01:06:56;;;;;;;3.83;3.50;;;;;;;19.23;65.64;98683.19;4169902;28;20633;-84
2022/08/09 01:09:09;;;;;;;3.63;3.30;;;;;;;19.23;65.80;98680.56;4171734;28;20628;-85
2022/08/09 01:11:23;;;;;;;4.20;3.70;;;;;;;19.24;65.56;98681.38;4171603;28;20643;-84
2022/08/09 01:13:33;;;;;;;4.17;3.53;;;;;;;19.20;66.55;98685.28;4169742;28;20728;-85
2022/08/09 01:15:56;;;;;;;4.10;3.33;;;;;;;19.17;66.01;98688.22;4169145;28;20707;-85
2022/08/09 01:18:03;;;;;;;4.00;3.53;;;;;;;19.12;65.44;98685.16;4171882;28;21128;-85
2022/08/09 01:20:15;;;;;;;5.77;3.60;;;;;;;19.10;65.88;98676.56;4154909;28;20649;-85
2022/08/09 01:22:33;;;;;;;4.23;3.40;;;;;;;19.05;66.80;98687.56;4175075;28;20693;-85
2022/08/09 01:24:47;;;;;;;3.73;3.33;;;;;;;19.04;66.89;98682.41;4174488;28;20746;-85
2022/08/09 01:26:58;;;;;;;3.83;3.43;;;;;;;19.02;66.21;98685.19;4171217;28;20727;-85
2022/08/09 01:29:02;;;;;;;4.73;3.60;;;;;;;19.00;66.41;98686.28;4166417;28;20643;-84
2022/08/09 01:31:06;;;;;;;3.93;3.53;;;;;;;19.00;66.14;98686.28;4174407;28;20658;-84
2022/08/09 01:33:13;;;;;;;3.77;3.47;;;;;;;19.00;66.09;98678.34;4170283;28;20629;-84
2022/08/09 01:35:21;;;;;;;4.03;3.60;;;;;;;18.91;65.79;98687.13;4172008;28;20719;-84
2022/08/09 01:37:40;;;;;;;4.00;3.60;;;;;;;18.90;66.39;98685.47;4160508;28;20698;-85
2022/08/09 01:40:06;;;;;;;5.20;4.10;;;;;;;18.86;67.01;98699.13;4171799;28;21017;-85
2022/08/09 01:42:11;;;;;;;3.93;3.50;;;;;;;18.78;67.14;98694.53;4168648;28;20687;-84
2022/08/09 01:44:15;;;;;;;8.70;3.73;;;;;;;18.74;66.68;98703.69;4171941;28;20641;-84
2022/08/09 01:46:23;;;;;;;6.20;3.60;;;;;;;18.72;66.84;98694.22;4171795;28;20646;-85
2022/08/09 01:48:30;;;;;;;4.00;3.70;;;;;;;18.71;67.04;98701.34;4170365;28;20660;-85
2022/08/09 01:50:34;;;;;;;4.43;4.00;;;;;;;18.70;66.54;98704.13;4170414;28;21059;-85
2022/08/09 01:52:44;;;;;;;5.80;3.87;;;;;;;18.71;67.18;98696.03;4168084;28;20775;-85
2022/08/09 01:54:55;;;;;;;4.30;3.87;;;;;;;18.68;67.11;98701.63;4170240;28;20624;-84
2022/08/09 01:57:00;;;;;;;4.40;4.00;;;;;;;18.71;67.33;98701.34;4166819;28;20750;-84
2022/08/09 01:59:11;;;;;;;7.50;4.07;;;;;;;18.70;66.76;98696.19;4173199;28;20635;-84
2022/08/09 02:01:19;;;;;;;4.30;3.90;;;;;;;18.69;67.14;98703.28;4166313;28;20644;-84
2022/08/09 02:03:34;;;;;;;4.77;4.23;;;;;;;18.68;67.37;98703.44;4163505;28;20652;-84
2022/08/09 02:05:38;;;;;;;4.33;3.90;;;;;;;18.66;66.97;98703.56;4171920;28;20636;-84
2022/08/09 02:08:03;;;;;;;5.03;3.70;;;;;;;18.61;67.25;98703.16;4172183;28;20801;-84
2022/08/09 02:10:30;;;;;;;4.50;4.10;;;;;;;18.57;67.70;98714.97;4171806;28;20734;-85
2022/08/09 02:12:34;;;;;;;4.20;3.80;;;;;;;18.53;67.57;98710.94;4172466;28;20635;-84
2022/08/09 02:14:40;;;;;;;5.57;3.73;;;;;;;18.49;66.94;98711.34;4169457;28;20616;-84
2022/08/09 02:16:44;;;;;;;4.63;4.00;;;;;;;18.47;68.44;98713.28;4172951;28;20664;-85
2022/08/09 02:19:07;;;;;;;5.17;4.03;;;;;;;18.41;67.67;98727.06;4200655;28;20623;-85
2022/08/09 02:21:13;;;;;;;4.53;3.70;;;;;;;18.35;68.95;98711.75;4169944;28;21243;-85
2022/08/09 02:23:30;;;;;;;4.20;3.80;;;;;;;18.32;67.88;98717.31;4201024;28;20623;-84
2022/08/09 02:25:43;;;;;;;3.83;3.53;;;;;;;18.32;67.84;98724.41;4170840;28;20690;-84
2022/08/09 02:28:04;;;;;;;4.83;4.10;;;;;;;18.31;68.92;98718.31;4171554;28;20723;-85
2022/08/09 02:30:13;;;;;;;4.90;4.20;;;;;;;18.31;69.14;98722.72;4167869;28;20706;-84
2022/08/09 02:32:20;;;;;;;4.90;4.10;;;;;;;18.29;67.81;98722.88;4173124;28;20629;-84
2022/08/09 02:34:27;;;;;;;4.50;4.03;;;;;;;18.25;69.01;98723.28;4170692;28;20644;-84
2022/08/09 02:36:53;;;;;;;4.30;3.90;;;;;;;18.22;68.97;98731.47;4172728;28;21173;-84
2022/08/09 02:39:00;;;;;;;4.57;4.20;;;;;;;18.19;68.68;98727.31;4175722;28;21187;-84
2022/08/09 02:41:08;;;;;;;4.77;4.07;;;;;;;18.14;68.88;98726.88;4177769;28;20685;-84
2022/08/09 02:43:12;;;;;;;4.13;3.60;;;;;;;18.11;68.37;98726.28;4173222;28;20639;-84
2022/08/09 02:45:23;;;;;;;4.67;4.23;;;;;;;18.06;69.16;98720.56;4156253;28;20689;-84
2022/08/09 02:47:31;;;;;;;4.27;3.83;;;;;;;18.08;69.19;98715.97;4175859;28;20646;-85
2022/08/09 02:49:51;;;;;;;5.60;4.20;;;;;;;18.03;69.20;98715.56;4172594;28;20643;-85
2022/08/09 02:52:04;;;;;;;6.60;4.13;;;;;;;17.95;70.13;98720.66;4172586;28;20753;-84
2022/08/09 02:54:14;;;;;;;5.83;4.23;;;;;;;17.91;69.66;98713.19;4174618;28;20634;-84
2022/08/09 02:56:17;;;;;;;4.23;3.83;;;;;;;17.91;69.97;98714.00;4170094;28;20685;-84
2022/08/09 02:58:24;;;;;;;4.53;3.90;;;;;;;17.92;70.41;98720.97;4171133;28;20717;-84
2022/08/09 03:00:41;;;;;;;4.40;4.00;;;;;;;17.92;68.53;98713.88;4173387;28;21937;-84
2022/08/09 03:03:01;;;;;;;5.70;4.17;;;;;;;17.90;69.58;98706.22;4173442;28;20622;-84
2022/08/09 03:05:06;;;;;;;5.43;4.10;;;;;;;17.86;70.00;98710.09;4169412;28;20676;-85
2022/08/09 03:07:19;;;;;;;4.80;4.10;;;;;;;17.83;68.92;98705.06;4157803;28;20762;-84
2022/08/09 03:09:23;;;;;;;4.80;4.07;;;;;;;17.83;69.38;98711.22;4173034;28;20710;-84
2022/08/09 03:11:27;;;;;;;4.63;4.10;;;;;;;17.82;70.17;98709.53;4172126;28;21000;-85
2022/08/09 03:13:51;;;;;;;7.73;3.90;;;;;;;17.80;70.36;98714.13;4170765;28;21181;-85
2022/08/09 03:16:05;;;;;;;6.53;4.63;;;;;;;17.74;69.03;98709.38;4176213;28;20630;-84
2022/08/09 03:18:10;;;;;;;4.87;4.47;;;;;;;17.72;69.57;98705.19;4168510;28;20653;-85
2022/08/09 03:20:14;;;;;;;4.40;4.00;;;;;;;17.70;70.13;98709.75;4173345;28;20654;-84
2022/08/09 03:22:18;;;;;;;5.00;4.50;;;;;;;17.64;69.72;98705.84;4162572;28;20645;-84
2022/08/09 03:24:41;;;;;;;5.57;5.00;;;;;;;17.64;70.82;98707.66;4168402;28;21576;-85
2022/08/09 03:27:05;;;;;;;5.27;4.77;;;;;;;17.62;71.57;98706.94;4172594;28;20661;-84
2022/08/09 03:29:09;;;;;;;7.37;5.00;;;;;;;17.59;70.10;98704.56;4154786;28;20670;-83
2022/08/09 03:31:26;;;;;;;5.33;4.80;;;;;;;17.57;70.71;98711.78;4173051;28;20647;-83
2022/08/09 03:33:29;;;;;;;4.90;4.50;;;;;;;17.54;71.61;98704.97;4172643;28;20635;-84
2022/08/09 03:35:52;;;;;;;4.43;4.03;;;;;;;17.53;72.19;98713.03;4172500;28;21063;-84
2022/08/09 03:38:16;;;;;;;4.80;4.40;;;;;;;17.52;70.90;98717.47;4170038;28;21070;-84
2022/08/09 03:40:32;;;;;;;7.30;4.60;;;;;;;17.52;71.95;98716.63;4173574;28;21203;-84
2022/08/09 03:42:35;;;;;;;4.83;4.33;;;;;;;17.49;69.85;98712.44;4173033;28;20638;-83
2022/08/09 03:44:38;;;;;;;4.90;4.40;;;;;;;17.50;71.08;98721.22;4173959;28;20614;-84
2022/08/09 03:46:43;;;;;;;5.90;4.40;;;;;;;17.48;72.65;98731.03;4172579;28;20680;-84
2022/08/09 03:48:49;;;;;;;7.50;4.63;;;;;;;17.46;70.78;98733.81;4175703;28;20679;-84
2022/08/09 03:50:54;;;;;;;4.63;4.23;;;;;;;17.45;70.74;98735.75;4149309;28;21001;-84
2022/08/09 03:53:01;;;;;;;4.90;4.50;;;;;;;17.45;70.74;98730.47;4170223;28;20664;-83
2022/08/09 03:55:08;;;;;;;4.50;4.10;;;;;;;17.46;72.24;98728.53;4173213;28;20637;-84
2022/08/09 03:57:13;;;;;;;4.63;4.23;;;;;;;17.48;71.42;98731.03;4173052;28;21017;-84
2022/08/09 03:59:23;;;;;;;4.90;4.40;;;;;;;17.48;72.22;98731.91;4172517;28;20662;-83
2022/08/09 04:01:49;;;;;;;4.60;4.20;;;;;;;17.46;71.37;98731.16;4170001;28;20635;-84
2022/08/09 04:03:53;;;;;;;4.93;4.53;;;;;;;17.46;71.66;98729.53;4171409;28;20679;-84
2022/08/09 04:06:06;;;;;;;5.00;4.60;;;;;;;17.41;71.62;98731.69;4170965;28;20672;-84
2022/08/09 04:08:14;;;;;;;5.30;4.80;;;;;;;17.38;72.41;98731.94;4170630;28;20722;-84
2022/08/09 04:10:21;;;;;;;5.00;4.50;;;;;;;17.38;71.70;98734.59;4171866;28;20627;-84
2022/08/09 04:12:41;;;;;;;5.13;4.63;;;;;;;17.37;71.63;98731.13;4171434;28;20671;-84
2022/08/09 04:14:46;;;;;;;4.80;4.40;;;;;;;17.33;72.19;98737.63;4171097;28;20658;-84
2022/08/09 04:17:06;;;;;;;5.50;4.70;;;;;;;17.33;72.55;98734.16;4186709;28;21185;-84
2022/08/09 04:19:09;;;;;;;4.83;4.43;;;;;;;17.35;72.89;98734.84;4171209;28;20733;-83
2022/08/09 04:21:17;;;;;;;5.47;4.77;;;;;;;17.34;72.75;98739.31;4171831;28;20626;-83
2022/08/09 04:23:21;;;;;;;5.33;4.83;;;;;;;17.31;72.45;98739.56;4173175;28;20684;-83
2022/08/09 04:25:27;;;;;;;6.33;4.60;;;;;;;17.29;71.44;98740.66;4158761;28;20675;-84
2022/08/09 04:27:30;;;;;;;5.27;4.77;;;;;;;17.29;72.92;98740.66;4151336;28;20635;-85
2022/08/09 04:29:34;;;;;;;5.60;5.10;;;;;;;17.30;70.99;98747.59;4184564;28;20629;-83
2022/08/09 04:31:40;;;;;;;5.00;4.53;;;;;;;17.30;72.75;98745.78;4175647;28;20809;-84
2022/08/09 04:33:50;;;;;;;5.00;4.60;;;;;;;17.33;73.32;98757.88;4191374;28;20741;-84
2022/08/09 04:36:01;;;;;;;5.17;4.73;;;;;;;17.33;73.36;98752.63;4172642;28;20995;-84
2022/08/09 04:38:05;;;;;;;6.37;4.47;;;;;;;17.34;73.08;98760.41;4171860;28;20742;-85
2022/08/09 04:40:09;;;;;;;6.03;5.03;;;;;;;17.37;73.61;98764.59;4168199;28;20672;-83
2022/08/09 04:42:12;;;;;;;5.20;4.70;;;;;;;17.37;73.51;98762.78;4172703;28;20626;-84
2022/08/09 04:44:17;;;;;;;4.83;4.40;;;;;;;17.41;71.32;98771.25;4168270;28;20633;-83
2022/08/09 04:46:21;;;;;;;5.83;4.27;;;;;;;17.42;72.15;98771.13;4173125;28;20629;-84
2022/08/09 04:48:46;;;;;;;6.80;4.80;;;;;;;17.48;72.31;98778.53;4160218;28;20645;-84
2022/08/09 04:51:01;;;;;;;5.43;4.93;;;;;;;17.50;71.50;98777.44;4159926;28;20637;-84
2022/08/09 04:53:06;;;;;;;5.53;4.40;;;;;;;17.50;71.11;98780.06;4171884;28;20618;-84
2022/08/09 04:55:15;;;;;;;5.87;4.80;;;;;;;17.54;71.56;98793.81;4170820;28;20632;-84
2022/08/09 04:57:21;;;;;;;6.10;5.37;;;;;;;17.58;72.76;98793.44;4171888;28;20684;-83
2022/08/09 04:59:26;;;;;;;6.00;4.97;;;;;;;17.62;72.30;98797.50;4163791;28;21082;-83
2022/08/09 05:01:32;;;;;;;6.20;4.63;;;;;;;17.64;71.10;98792.91;4164559;28;20975;-83
2022/08/09 05:03:35;;;;;;;6.67;5.10;;;;;;;17.71;72.83;98801.13;4169493;28;20627;-84
2022/08/09 05:05:47;;;;;;;5.37;4.70;;;;;;;17.75;70.90;98802.56;4201572;28;20627;-84
2022/08/09 05:08:07;;;;;;;5.37;4.87;;;;;;;17.81;70.66;98804.69;4156868;28;21039;-84
2022/08/09 05:10:11;;;;;;;5.20;4.70;;;;;;;17.87;69.99;98812.06;4171850;28;20636;-84
2022/08/09 05:12:14;;;;;;;7.10;4.93;;;;;;;17.92;71.91;98809.84;4170720;28;20717;-84
2022/08/09 05:14:17;;;;;;;6.90;5.63;;;;;;;17.96;70.70;98815.56;4169891;28;20726;-84
2022/08/09 05:16:21;;;;;;;7.63;5.80;;;;;;;17.95;70.11;98816.56;4155800;28;20632;-83
2022/08/09 05:18:34;;;;;;;5.27;4.87;;;;;;;17.96;70.77;98822.66;4173061;28;20671;-84
2022/08/09 05:20:44;;;;;;;6.53;5.93;;;;;;;18.02;72.58;98822.97;4167693;28;20995;-84
2022/08/09 05:22:49;;;;;;;7.30;4.97;;;;;;;18.08;72.35;98826.88;4167437;28;20699;-83
2022/08/09 05:25:15;;;;;;;5.60;5.10;;;;;;;18.14;70.28;98823.75;4172495;28;20644;-84
2022/08/09 05:27:20;;;;;;;5.70;4.80;;;;;;;18.20;70.45;98833.78;4173885;28;20644;-83
2022/08/09 05:29:24;;;;;;;6.13;4.93;;;;;;;18.27;71.70;98825.19;4172616;28;20651;-83
2022/08/09 05:31:33;;;;;;;6.37;5.80;;;;;;;18.41;71.67;98836.19;4167846;28;21139;-84
2022/08/09 05:33:46;;;;;;;6.00;5.40;;;;;;;18.65;71.40;98841.97;4168485;28;20638;-84
2022/08/09 05:35:49;;;;;;;7.93;5.40;;;;;;;18.88;70.67;98848.69;4154969;28;20623;-84
2022/08/09 05:37:52;;;;;;;7.40;5.33;;;;;;;19.09;69.47;98844.16;4173868;28;20689;-84
2022/08/09 05:39:57;;;;;;;8.27;5.47;;;;;;;19.32;69.01;98846.38;4172038;28;21261;-83
2022/08/09 05:42:04;;;;;;;6.70;4.97;;;;;;;19.54;68.66;98849.53;4156975;28;20637;-84
2022/08/09 05:44:07;;;;;;;5.93;5.43;;;;;;;19.84;69.37;98850.22;4170330;28;20670;-84
2022/08/09 05:46:14;;;;;;;7.00;5.57;;;;;;;20.15;69.12;98858.78;4171159;28;20749;-84
2022/08/09 05:48:17;;;;;;;7.10;6.20;;;;;;;20.45;69.16;98852.22;4174268;28;20645;-84
2022/08/09 05:50:24;;;;;;;5.70;5.20;;;;;;;20.67;65.87;98857.16;4173721;28;21244;-84
2022/08/09 05:52:47;;;;;;;5.97;5.47;;;;;;;20.87;66.32;98859.53;4167508;28;20743;-84
2022/08/09 05:54:56;;;;;;;6.07;4.60;;;;;;;21.12;64.34;98860.63;4170319;28;20678;-84
2022/08/09 05:57:06;;;;;;;7.53;5.30;;;;;;;21.36;65.19;98857.22;4170183;28;20704;-84
2022/08/09 05:59:16;;;;;;;6.43;5.50;;;;;;;21.61;64.19;98860.94;4176643;28;20671;-84
2022/08/09 06:01:19;;;;;;;6.40;4.60;;;;;;;21.82;63.29;98859.63;4166258;28;20628;-84
2022/08/09 06:03:23;;;;;;;7.10;5.27;;;;;;;21.98;63.09;98855.25;4157504;28;20631;-84
2022/08/09 06:05:36;;;;;;;5.63;5.10;;;;;;;22.16;63.80;98869.31;4170453;28;20652;-84
2022/08/09 06:08:00;;;;;;;5.60;5.03;;;;;;;22.41;61.98;98868.47;4170818;28;20645;-84
2022/08/09 06:10:14;;;;;;;6.33;4.93;;;;;;;22.66;61.85;98868.41;4174320;28;20746;-84
2022/08/09 06:12:21;;;;;;;6.27;5.67;;;;;;;22.86;61.68;98872.47;4177492;28;20662;-84
2022/08/09 06:14:28;;;;;;;5.93;5.33;;;;;;;23.06;61.19;98863.25;4173227;28;20632;-83
2022/08/09 06:16:31;;;;;;;5.07;4.57;;;;;;;23.26;60.32;98870.78;4171496;28;20973;-84
2022/08/09 06:18:35;;;;;;;6.93;5.20;;;;;;;23.45;59.90;98867.78;4168663;28;20649;-83
2022/08/09 06:20:38;;;;;;;7.63;5.30;;;;;;;23.61;59.11;98875.81;4172585;28;21205;-84
2022/08/09 06:22:41;;;;;;;6.90;4.70;;;;;;;23.75;59.06;98875.97;4165004;28;20637;-83
2022/08/09 06:24:47;;;;;;;5.43;4.97;;;;;;;23.90;59.04;98875.13;4160065;28;20629;-83
2022/08/09 06:26:50;;;;;;;5.60;5.00;;;;;;;24.08;58.21;98878.44;4169901;28;21212;-83
2022/08/09 06:28:56;;;;;;;6.30;5.37;;;;;;;24.29;58.66;98879.56;4170629;28;20631;-82
2022/08/09 06:31:06;;;;;;;5.33;4.83;;;;;;;24.54;58.43;98886.53;4171818;28;21206;-83
2022/08/09 06:33:09;;;;;;;7.50;5.20;;;;;;;24.73;57.58;98883.44;4168299;28;20663;-83
2022/08/09 06:35:32;;;;;;;5.33;4.33;;;;;;;24.85;57.52;98885.59;4172808;28;21542;-83
2022/08/09 06:37:55;;;;;;;5.13;3.90;;;;;;;25.11;55.78;98890.63;4177995;28;20681;-84
2022/08/09 06:40:09;;;;;;;5.80;4.20;;;;;;;25.40;54.17;98892.47;4168109;28;20669;-83
2022/08/09 06:42:26;;;;;;;5.13;3.67;;;;;;;25.69;53.32;98892.59;4173946;28;20636;-83
2022/08/09 06:44:36;;;;;;;4.80;3.50;;;;;;;25.90;53.48;98890.09;4177038;28;21078;-82
2022/08/09 06:46:40;;;;;;;6.43;3.30;;;;;;;26.06;52.67;98895.31;4172162;28;20666;-83
2022/08/09 06:48:44;;;;;;;3.93;3.53;;;;;;;26.28;52.47;98896.13;4178029;28;21228;-84
2022/08/09 06:50:47;;;;;;;4.63;3.50;;;;;;;26.46;52.00;98893.91;4164868;28;20628;-83
2022/08/09 06:52:50;;;;;;;3.97;3.63;;;;;;;26.68;51.15;98891.13;4172818;28;20630;-82
2022/08/09 06:54:54;;;;;;;5.50;3.43;;;;;;;26.83;51.22;98894.63;4168259;28;21069;-83
2022/08/09 06:56:57;;;;;;;6.20;3.87;;;;;;;27.02;51.76;98890.56;4169943;28;20687;-82
2022/08/09 06:59:01;;;;;;;3.93;3.63;;;;;;;27.15;51.18;98891.53;4174555;28;21288;-83
2022/08/09 07:01:25;;;;;;;3.80;3.50;;;;;;;27.33;51.17;98894.66;4169988;28;20637;-82
2022/08/09 07:03:48;;;;;;;4.50;3.80;;;;;;;27.32;50.26;98892.97;4159645;28;20632;-81
2022/08/09 07:05:57;;;;;;;6.10;3.80;;;;;;;27.37;51.13;98901.31;4189059;28;20644;-81
2022/08/09 07:08:06;;;;;;;4.70;3.60;;;;;;;27.60;50.07;98900.13;4191744;28;20640;-81
2022/08/09 07:10:10;;;;;;;4.10;3.70;;;;;;;27.70;50.65;98897.97;4173090;28;20606;-82
2022/08/09 07:12:31;;;;;;;3.60;3.30;;;;;;;28.05;51.33;98896.03;4174484;28;20670;-82
2022/08/09 07:14:43;;;;;;;5.27;3.37;;;;;;;28.36;49.65;98898.34;4171585;28;20626;-82
2022/08/09 07:16:48;;;;;;;4.13;3.77;;;;;;;28.46;50.51;98905.00;4168182;28;20625;-81
2022/08/09 07:18:59;;;;;;;4.70;3.57;;;;;;;28.50;48.89;98900.91;4171347;28;20744;-81
2022/08/09 07:21:02;;;;;;;4.40;4.00;;;;;;;28.47;49.06;98895.94;4171130;28;20645;-82
2022/08/09 07:23:10;;;;;;;4.20;3.77;;;;;;;28.46;49.49;98904.19;4175628;28;20942;-81
2022/08/09 07:25:21;;;;;;;4.30;3.90;;;;;;;28.68;49.77;98898.56;4172228;28;21042;-81
2022/08/09 07:27:26;;;;;;;6.53;3.63;;;;;;;28.88;48.44;98900.31;4170090;28;20655;-81
2022/08/09 07:29:45;;;;;;;4.17;3.77;;;;;;;29.06;48.65;98904.16;4175759;28;20730;-80
2022/08/09 07:31:50;;;;;;;4.20;3.60;;;;;;;29.14;47.65;98906.66;4171797;28;20640;-81
2022/08/09 07:33:55;;;;;;;6.17;3.53;;;;;;;29.25;48.08;98900.72;4172501;28;21051;-81
2022/08/09 07:36:01;;;;;;;3.93;3.63;;;;;;;29.49;48.45;98908.25;4174908;28;21195;-82
2022/08/09 07:38:04;;;;;;;3.93;3.60;;;;;;;29.52;48.33;98908.66;4169154;28;20708;-81
2022/08/09 07:40:09;;;;;;;4.23;3.93;;;;;;;29.54;48.17;98906.63;4174951;28;20668;-80
2022/08/09 07:42:15;;;;;;;4.00;3.60;;;;;;;29.51;48.05;98907.03;4157478;28;20621;-81
2022/08/09 07:44:19;;;;;;;4.67;3.60;;;;;;;29.63;47.95;98905.38;4170791;28;20626;-81
2022/08/09 07:46:42;;;;;;;4.33;3.63;;;;;;;29.71;47.66;98907.88;4168106;28;20646;-81
2022/08/09 07:48:46;;;;;;;4.57;3.70;;;;;;;29.74;48.01;98901.25;4172593;28;21359;-81
2022/08/09 07:51:02;;;;;;;4.30;3.90;;;;;;;29.56;47.70;98901.84;4176716;28;20967;-81
2022/08/09 07:53:28;;;;;;;4.20;3.73;;;;;;;29.55;48.24;98908.25;4177029;28;20684;-81
2022/08/09 07:55:51;;;;;;;6.30;3.90;;;;;;;29.70;47.08;98897.34;4160086;28;20630;-81
2022/08/09 07:58:08;;;;;;;4.27;3.23;;;;;;;29.94;47.38;98908.34;4174319;28;20710;-81
2022/08/09 08:00:17;;;;;;;6.73;3.50;;;;;;;30.21;47.84;98913.53;4178437;28;20747;-81
2022/08/09 08:02:37;;;;;;;4.07;3.67;;;;;;;30.20;46.98;98902.97;4172727;28;20636;-82
2022/08/09 08:04:46;;;;;;;5.67;3.80;;;;;;;30.26;46.73;98902.97;4174784;28;20635;-82
2022/08/09 08:06:51;;;;;;;4.27;3.87;;;;;;;30.41;47.12;98902.78;4176504;28;20643;-81
2022/08/09 08:09:02;;;;;;;3.80;3.37;;;;;;;30.47;46.70;98900.06;4177571;28;20619;-81
2022/08/09 08:11:20;;;;;;;6.50;4.90;;;;;;;30.46;46.51;98896.56;4171113;28;20790;-81
2022/08/09 08:13:43;;;;;;;5.10;3.50;;;;;;;30.50;46.83;98894.28;4172103;28;21277;-81
2022/08/09 08:15:59;;;;;;;3.80;3.50;;;;;;;30.63;47.05;98913.13;4171004;28;21017;-81
2022/08/09 08:18:02;;;;;;;4.30;3.77;;;;;;;30.55;46.98;98894.47;4157838;28;20635;-81
2022/08/09 08:20:08;;;;;;;4.77;3.50;;;;;;;30.73;46.35;98906.25;4171897;28;20664;-81
2022/08/09 08:22:15;;;;;;;4.10;3.70;;;;;;;30.95;46.43;98900.38;4176103;28;20663;-81
2022/08/09 08:24:18;;;;;;;3.87;3.57;;;;;;;30.98;46.49;98904.53;4171626;28;20659;-81
2022/08/09 08:26:23;;;;;;;3.77;3.40;;;;;;;31.17;46.31;98906.34;4172321;28;21084;-81
2022/08/09 08:28:44;;;;;;;4.33;3.60;;;;;;;31.28;45.80;98911.06;4169461;28;21000;-81
2022/08/09 08:30:47;;;;;;;3.90;3.60;;;;;;;31.45;46.49;98907.66;4169463;28;20640;-81
2022/08/09 08:32:52;;;;;;;4.13;3.73;;;;;;;31.48;46.24;98913.47;4187325;28;20631;-81
2022/08/09 08:34:56;;;;;;;4.47;3.90;;;;;;;31.30;45.18;98904.38;4170933;28;20636;-81
2022/08/09 08:37:02;;;;;;;4.03;3.63;;;;;;;31.33;46.17;98912.06;4172637;28;20636;-81
2022/08/09 08:39:06;;;;;;;8.43;3.23;;;;;;;31.51;46.24;98912.19;4175543;28;21214;-81
2022/08/09 08:41:12;;;;;;;3.83;3.40;;;;;;;31.61;45.02;98909.88;4159628;28;21096;-82
2022/08/09 08:43:17;;;;;;;4.40;3.43;;;;;;;31.68;46.62;98918.75;4171310;28;20668;-81
2022/08/09 08:45:29;;;;;;;3.67;3.37;;;;;;;31.65;45.55;98919.16;4159460;28;23781;-82
2022/08/09 08:47:40;;;;;;;5.73;3.83;;;;;;;31.68;45.82;98913.34;4170203;28;21231;-82
2022/08/09 08:49:47;;;;;;;4.60;4.10;;;;;;;31.80;45.47;98898.09;4172790;28;20720;-81
2022/08/09 08:51:52;;;;;;;3.57;3.27;;;;;;;31.70;45.42;98908.56;4173155;28;21079;-81
2022/08/09 08:54:06;;;;;;;6.03;3.50;;;;;;;31.44;45.57;98906.03;4173598;28;20644;-81
2022/08/09 08:56:12;;;;;;;3.70;3.40;;;;;;;31.47;45.34;98909.13;4169811;28;20621;-81
2022/08/09 08:58:31;;;;;;;5.10;3.60;;;;;;;31.66;44.88;98910.84;4169717;28;21202;-82
2022/08/09 09:00:35;;;;;;;3.50;3.13;;;;;;;31.70;44.77;98922.06;4176362;28;20645;-81
2022/08/09 09:02:40;;;;;;;4.10;3.60;;;;;;;31.71;44.31;98912.91;4174659;28;20728;-81
2022/08/09 09:04:43;;;;;;;5.80;3.30;;;;;;;31.77;44.96;98909.34;4174257;28;20668;-81
2022/08/09 09:06:57;;;;;;;4.20;3.30;;;;;;;31.61;44.75;98912.56;4180365;28;20671;-81
2022/08/09 09:09:00;;;;;;;3.97;3.57;;;;;;;31.26;44.64;98908.56;4204274;28;21176;-82
2022/08/09 09:11:24;;;;;;;5.20;3.80;;;;;;;31.12;44.82;98898.03;4171441;28;20995;-81
2022/08/09 09:13:28;;;;;;;4.00;3.70;;;;;;;31.03;46.20;98902.03;4169703;28;20642;-81
2022/08/09 09:15:51;;;;;;;4.00;3.60;;;;;;;31.15;46.08;98906.56;4174355;28;20702;-82
2022/08/09 09:17:55;;;;;;;4.83;3.67;;;;;;;31.17;44.61;98899.06;4172770;28;20628;-82
2022/08/09 09:19:58;;;;;;;3.83;3.53;;;;;;;31.14;44.71;98893.28;4164584;28;20663;-81
2022/08/09 09:22:05;;;;;;;5.17;3.50;;;;;;;31.15;44.62;98892.22;4168180;28;21048;-81
2022/08/09 09:24:13;;;;;;;4.20;3.33;;;;;;;31.07;45.68;98887.91;4172725;28;20636;-81
2022/08/09 09:26:25;;;;;;;3.47;3.17;;;;;;;31.04;44.30;98890.19;4175898;28;20640;-81
2022/08/09 09:28:32;;;;;;;3.60;3.30;;;;;;;31.10;45.38;98886.66;4166824;28;20664;-81
2022/08/09 09:30:58;;;;;;;3.70;3.40;;;;;;;31.28;45.33;98898.38;4167173;28;20624;-81
2022/08/09 09:33:04;;;;;;;3.40;3.10;;;;;;;31.18;44.35;98892.63;4173985;28;20643;-81
2022/08/09 09:35:19;;;;;;;3.67;3.37;;;;;;;30.98;44.22;98889.19;4169842;28;20640;-81
2022/08/09 09:37:28;;;;;;;3.30;3.00;;;;;;;30.87;43.98;98880.94;4171185;28;20645;-82
2022/08/09 09:39:34;;;;;;;3.87;3.57;;;;;;;30.62;44.30;98879.94;4169005;28;20681;-82
2022/08/09 09:41:59;;;;;;;3.67;3.20;;;;;;;30.45;44.34;98878.72;4163918;28;20652;-81
2022/08/09 09:44:05;;;;;;;3.80;3.50;;;;;;;30.55;44.76;98864.81;4171017;28;20637;-81
2022/08/09 09:46:15;;;;;;;3.50;3.20;;;;;;;30.44;44.32;98881.63;4168789;28;20632;-81
2022/08/09 09:48:55;;;;;;;3.80;3.47;;;;;;;30.52;44.45;98873.31;4173752;28;21001;-81
2022/08/09 09:50:58;;;;;;;3.10;2.80;;;;;;;30.65;44.23;98884.91;4169511;28;20637;-82
2022/08/09 09:53:03;;;;;;;3.63;3.13;;;;;;;30.63;43.53;98872.69;4172407;28;20663;-82
2022/08/09 09:55:14;;;;;;;3.53;3.23;;;;;;;30.72;44.48;98871.44;4174331;28;20628;-82
2022/08/09 09:57:32;;;;;;;3.40;3.10;;;;;;;30.81;44.28;98864.72;4173124;28;21280;-82
2022/08/09 09:59:55;;;;;;;5.10;3.50;;;;;;;30.78;44.00;98874.09;4168602;28;20651;-81
2022/08/09 10:02:01;;;;;;;4.50;3.30;;;;;;;30.71;44.59;98873.28;4175268;28;20664;-82
2022/08/09 10:04:12;;;;;;;3.90;3.60;;;;;;;30.57;44.28;98881.63;4173009;28;20647;-81
2022/08/09 10:06:18;;;;;;;4.03;3.60;;;;;;;30.54;45.03;98858.59;4172808;28;21272;-82
2022/08/09 10:08:23;;;;;;;4.00;3.47;;;;;;;30.63;44.38;98870.00;4171500;28;20770;-81
2022/08/09 10:10:30;;;;;;;4.00;3.50;;;;;;;30.66;44.58;98873.09;4169294;28;20636;-82